sensor_id;sensor_type;location;lat;lon;timestamp;pressure;altitude;pressure_sealevel;temperature;humidity
50338;BME280;46221;51.178;5.900;2023-02-23T03:22:07;101068.06;;;15.23;64.11
50338;BME280;46221;51.178;5.900;2023-02-23T03:25:03;101059.97;;;15.24;64.21
50338;BME280;46221;51.178;5.900;2023-02-23T03:27:55;101070.28;;;15.32;64.10
50338;BME280;46221;51.178;5.900;2023-02-23T03:30:47;101066.56;;;15.36;63.91
50338;BME280;46221;51.178;5.900;2023-02-23T03:33:51;101066.47;;;15.38;63.41
50338;BME280;46221;51.178;5.900;2023-02-23T03:36:42;101071.59;;;15.42;63.33
50338;BME280;46221;51.178;5.900;2023-02-23T03:39:39;101063.41;;;15.47;63.35
50338;BME280;46221;51.178;5.900;2023-02-23T03:42:29;101073.00;;;15.51;63.22
50338;BME280;46221;51.178;5.900;2023-02-23T03:45:19;101064.03;;;15.52;63.28
50338;BME280;46221;51.178;5.900;2023-02-23T03:48:08;101058.69;;;15.52;63.00
50338;BME280;46221;51.178;5.900;2023-02-23T03:50:58;101077.25;;;15.55;62.85
50338;BME280;46221;51.178;5.900;2023-02-23T03:56:34;101068.22;;;15.58;62.82
50338;BME280;46221;51.178;5.900;2023-02-23T03:59:25;101073.56;;;15.58;62.76
50338;BME280;46221;51.178;5.900;2023-02-23T04:02:13;101069.09;;;15.58;62.68
50338;BME280;46221;51.178;5.900;2023-02-23T04:05:05;101073.47;;;15.59;62.64
50338;BME280;46221;51.178;5.900;2023-02-23T04:07:53;101083.25;;;15.60;62.55
50338;BME280;46221;51.178;5.900;2023-02-23T04:10:40;101080.41;;;15.44;62.75
50338;BME280;46221;51.178;5.900;2023-02-23T04:13:32;101079.19;;;15.51;62.88
50338;BME280;46221;51.178;5.900;2023-02-23T04:16:02;101085.22;;;15.57;62.40
50338;BME280;46221;51.178;5.900;2023-02-23T04:18:33;101092.03;;;15.62;62.49
50338;BME280;46221;51.178;5.900;2023-02-23T04:21:01;101083.13;;;15.63;62.55
50338;BME280;46221;51.178;5.900;2023-02-23T04:23:28;101090.28;;;15.63;62.49
50338;BME280;46221;51.178;5.900;2023-02-23T04:25:55;101090.19;;;15.64;62.78
50338;BME280;46221;51.178;5.900;2023-02-23T04:28:24;101080.44;;;15.63;62.51
50338;BME280;46221;51.178;5.900;2023-02-23T04:30:51;101081.31;;;15.64;62.61
50338;BME280;46221;51.178;5.900;2023-02-23T04:33:21;101078.53;;;15.65;62.44
50338;BME280;46221;51.178;5.900;2023-02-23T04:35:47;101081.22;;;15.65;62.36
50338;BME280;46221;51.178;5.900;2023-02-23T04:38:14;101070.97;;;15.56;62.47
50338;BME280;46221;51.178;5.900;2023-02-23T04:40:40;101090.06;;;15.67;62.66
50338;BME280;46221;51.178;5.900;2023-02-23T04:43:10;101091.78;;;15.68;62.23
50338;BME280;46221;51.178;5.900;2023-02-23T04:45:37;101083.13;;;15.63;62.38
50338;BME280;46221;51.178;5.900;2023-02-23T04:48:04;101091.78;;;15.68;62.23
50338;BME280;46221;51.178;5.900;2023-02-23T04:50:31;101095.44;;;15.66;61.94
50338;BME280;46221;51.178;5.900;2023-02-23T04:52:58;101084.97;;;15.61;62.21
50338;BME280;46221;51.178;5.900;2023-02-23T04:55:27;101112.25;;;15.69;62.13
50338;BME280;46221;51.178;5.900;2023-02-23T04:57:57;101095.28;;;15.70;62.07
50338;BME280;46221;51.178;5.900;2023-02-23T05:00:26;101105.97;;;15.70;62.19
50338;BME280;46221;51.178;5.900;2023-02-23T05:02:53;101102.47;;;15.68;62.25
50338;BME280;46221;51.178;5.900;2023-02-23T05:05:19;101099.91;;;15.67;62.26
50338;BME280;46221;51.178;5.900;2023-02-23T05:07:46;101106.09;;;15.67;62.21
50338;BME280;46221;51.178;5.900;2023-02-23T05:10:12;101107.94;;;15.65;62.21
50338;BME280;46221;51.178;5.900;2023-02-23T05:12:39;101106.13;;;15.66;62.31
50338;BME280;46221;51.178;5.900;2023-02-23T05:15:06;101104.38;;;15.66;62.13
50338;BME280;46221;51.178;5.900;2023-02-23T05:17:32;101100.75;;;15.67;62.18
50338;BME280;46221;51.178;5.900;2023-02-23T05:19:59;101113.25;;;15.67;61.98
50338;BME280;46221;51.178;5.900;2023-02-23T05:22:25;101115.94;;;15.67;61.95
50338;BME280;46221;51.178;5.900;2023-02-23T05:24:51;101111.31;;;15.70;62.02
50338;BME280;46221;51.178;5.900;2023-02-23T05:27:19;101116.66;;;15.70;62.12
50338;BME280;46221;51.178;5.900;2023-02-23T05:29:45;101118.53;;;15.68;62.08
50338;BME280;46221;51.178;5.900;2023-02-23T05:32:12;101117.59;;;15.69;62.21
50338;BME280;46221;51.178;5.900;2023-02-23T05:34:38;101114.94;;;15.69;62.16
50338;BME280;46221;51.178;5.900;2023-02-23T05:37:06;101121.13;;;15.70;61.79
50338;BME280;46221;51.178;5.900;2023-02-23T05:39:32;101124.72;;;15.69;61.78
50338;BME280;46221;51.178;5.900;2023-02-23T05:41:59;101121.28;;;15.67;61.74
50338;BME280;46221;51.178;5.900;2023-02-23T05:44:25;101117.66;;;15.68;61.84
50338;BME280;46221;51.178;5.900;2023-02-23T05:46:52;101113.19;;;15.68;61.87
50338;BME280;46221;51.178;5.900;2023-02-23T05:49:18;101114.13;;;15.67;61.89
50338;BME280;46221;51.178;5.900;2023-02-23T05:51:45;101118.47;;;15.70;61.87
50338;BME280;46221;51.178;5.900;2023-02-23T05:54:11;101123.81;;;15.70;61.85
50338;BME280;46221;51.178;5.900;2023-02-23T05:56:40;101117.66;;;15.68;61.68
50338;BME280;46221;51.178;5.900;2023-02-23T05:59:07;101120.34;;;15.68;61.60
50338;BME280;46221;51.178;5.900;2023-02-23T06:01:34;101124.81;;;15.67;61.64
50338;BME280;46221;51.178;5.900;2023-02-23T06:04:01;101123.09;;;15.66;61.69
50338;BME280;46221;51.178;5.900;2023-02-23T06:06:29;101121.28;;;15.67;61.72
50338;BME280;46221;51.178;5.900;2023-02-23T06:08:56;101132.81;;;15.67;61.69
50338;BME280;46221;51.178;5.900;2023-02-23T06:11:22;101140.75;;;15.69;61.69
50338;BME280;46221;51.178;5.900;2023-02-23T06:13:49;101132.06;;;15.64;61.49
50338;BME280;46221;51.178;5.900;2023-02-23T06:16:15;101143.50;;;15.67;61.72
50338;BME280;46221;51.178;5.900;2023-02-23T06:18:43;101136.47;;;15.65;61.70
50338;BME280;46221;51.178;5.900;2023-02-23T06:21:09;101153.34;;;15.67;61.51
50338;BME280;46221;51.178;5.900;2023-02-23T06:23:36;101149.81;;;15.65;61.52
50338;BME280;46221;51.178;5.900;2023-02-23T06:26:03;101149.91;;;15.63;61.50
50338;BME280;46221;51.178;5.900;2023-02-23T06:28:29;101150.69;;;15.65;61.71
50338;BME280;46221;51.178;5.900;2023-02-23T06:30:56;101162.25;;;15.66;61.56
50338;BME280;46221;51.178;5.900;2023-02-23T06:33:23;101159.56;;;15.67;61.57
50338;BME280;46221;51.178;5.900;2023-02-23T06:35:50;101157.06;;;15.63;61.61
50338;BME280;46221;51.178;5.900;2023-02-23T06:38:17;101164.13;;;15.64;61.49
50338;BME280;46221;51.178;5.900;2023-02-23T06:40:44;101163.28;;;15.63;61.75
50338;BME280;46221;51.178;5.900;2023-02-23T06:43:11;101162.47;;;15.61;61.70
50338;BME280;46221;51.178;5.900;2023-02-23T06:45:37;101168.75;;;15.60;61.83
50338;BME280;46221;51.178;5.900;2023-02-23T06:48:04;101167.94;;;15.58;61.80
50338;BME280;46221;51.178;5.900;2023-02-23T06:50:31;101179.31;;;15.63;61.56
50338;BME280;46221;51.178;5.900;2023-02-23T06:52:58;101181.03;;;15.64;61.72
50338;BME280;46221;51.178;5.900;2023-02-23T06:55:24;101174.16;;;15.59;61.52
50338;BME280;46221;51.178;5.900;2023-02-23T06:57:51;101168.16;;;15.53;61.91
50338;BME280;46221;51.178;5.900;2023-02-23T07:00:19;101184.66;;;15.63;61.74
50338;BME280;46221;51.178;5.900;2023-02-23T07:02:47;101186.66;;;15.58;61.77
50338;BME280;46221;51.178;5.900;2023-02-23T07:05:13;101179.59;;;15.57;61.54
50338;BME280;46221;51.178;5.900;2023-02-23T07:07:40;101190.19;;;15.59;62.02
50338;BME280;46221;51.178;5.900;2023-02-23T07:10:07;101192.00;;;15.58;61.77
50338;BME280;46221;51.178;5.900;2023-02-23T07:12:33;101193.72;;;15.59;61.60
50338;BME280;46221;51.178;5.900;2023-02-23T07:15:00;101187.59;;;15.57;61.91
50338;BME280;46221;51.178;5.900;2023-02-23T07:17:26;101200.81;;;15.60;61.87
50338;BME280;46221;51.178;5.900;2023-02-23T07:19:53;101194.66;;;15.58;61.63
50338;BME280;46221;51.178;5.900;2023-02-23T07:22:19;101199.00;;;15.61;61.79
50338;BME280;46221;51.178;5.900;2023-02-23T07:24:47;101201.69;;;15.61;61.63
50338;BME280;46221;51.178;5.900;2023-02-23T07:27:13;101209.63;;;15.62;61.50
50338;BME280;46221;51.178;5.900;2023-02-23T07:29:40;101202.53;;;15.61;61.81
50338;BME280;46221;51.178;5.900;2023-02-23T07:32:06;101216.72;;;15.63;61.82
50338;BME280;46221;51.178;5.900;2023-02-23T07:34:33;101214.19;;;15.60;61.62
50338;BME280;46221;51.178;5.900;2023-02-23T07:36:59;101214.09;;;15.62;62.01
50338;BME280;46221;51.178;5.900;2023-02-23T07:39:26;101222.19;;;15.60;61.76
50338;BME280;46221;51.178;5.900;2023-02-23T07:41:52;101222.97;;;15.62;61.71
50338;BME280;46221;51.178;5.900;2023-02-23T07:44:19;101211.38;;;15.63;61.78
50338;BME280;46221;51.178;5.900;2023-02-23T07:46:45;101227.31;;;15.65;61.41
50338;BME280;46221;51.178;5.900;2023-02-23T07:49:12;101229.97;;;15.66;61.49
50338;BME280;46221;51.178;5.900;2023-02-23T07:51:39;101229.03;;;15.67;61.49
50338;BME280;46221;51.178;5.900;2023-02-23T07:54:06;101237.03;;;15.67;61.41
50338;BME280;46221;51.178;5.900;2023-02-23T07:56:33;101236.09;;;15.68;61.39
50338;BME280;46221;51.178;5.900;2023-02-23T07:59:00;101233.50;;;15.67;61.24
50338;BME280;46221;51.178;5.900;2023-02-23T08:01:27;101244.19;;;15.67;61.17
50338;BME280;46221;51.178;5.900;2023-02-23T08:03:53;101245.94;;;15.68;61.25
50338;BME280;46221;51.178;5.900;2023-02-23T08:06:20;101252.94;;;15.70;61.19
50338;BME280;46221;51.178;5.900;2023-02-23T08:08:47;101253.09;;;15.67;61.04
50338;BME280;46221;51.178;5.900;2023-02-23T08:11:13;101254.88;;;15.67;61.03
50338;BME280;46221;51.178;5.900;2023-02-23T08:13:41;101252.25;;;15.65;60.94
50338;BME280;46221;51.178;5.900;2023-02-23T08:16:07;101245.31;;;15.61;61.11
50338;BME280;46221;51.178;5.900;2023-02-23T08:18:34;101261.09;;;15.67;60.87
50338;BME280;46221;51.178;5.900;2023-02-23T08:21:01;101271.66;;;15.70;60.90
50338;BME280;46221;51.178;5.900;2023-02-23T08:23:36;101268.91;;;15.72;60.50
50338;BME280;46221;51.178;5.900;2023-02-23T08:26:03;101266.31;;;15.70;60.48
50338;BME280;46221;51.178;5.900;2023-02-23T08:28:29;101275.09;;;15.72;60.58
50338;BME280;46221;51.178;5.900;2023-02-23T08:30:56;101261.97;;;15.68;60.70
50338;BME280;46221;51.178;5.900;2023-02-23T08:33:25;101278.47;;;15.77;60.69
50338;BME280;46221;51.178;5.900;2023-02-23T08:35:51;101273.13;;;15.77;60.66
50338;BME280;46221;51.178;5.900;2023-02-23T08:38:19;101280.19;;;15.79;60.67
50338;BME280;46221;51.178;5.900;2023-02-23T08:40:45;101277.50;;;15.79;60.73
50338;BME280;46221;51.178;5.900;2023-02-23T08:43:12;101273.25;;;15.74;60.36
50338;BME280;46221;51.178;5.900;2023-02-23T08:45:38;101284.41;;;15.84;60.33
50338;BME280;46221;51.178;5.900;2023-02-23T08:48:06;101284.41;;;15.84;60.84
50338;BME280;46221;51.178;5.900;2023-02-23T08:50:33;101292.94;;;15.92;60.84
50338;BME280;46221;51.178;5.900;2023-02-23T08:52:59;101291.94;;;15.95;60.69
50338;BME280;46221;51.178;5.900;2023-02-23T08:55:26;101288.19;;;15.99;60.77
50338;BME280;46221;51.178;5.900;2023-02-23T08:57:52;101293.38;;;16.02;60.41
50338;BME280;46221;51.178;5.900;2023-02-23T09:00:19;101292.38;;;16.05;60.33
50338;BME280;46221;51.178;5.900;2023-02-23T09:02:46;101303.81;;;16.08;60.34
50338;BME280;46221;51.178;5.900;2023-02-23T09:05:13;101299.19;;;16.12;60.23
50338;BME280;46221;51.178;5.900;2023-02-23T09:07:41;101312.50;;;16.13;60.22
50338;BME280;46221;51.178;5.900;2023-02-23T09:10:15;101316.75;;;16.17;59.91
50338;BME280;46221;51.178;5.900;2023-02-23T09:12:42;101319.44;;;16.17;59.98
50338;BME280;46221;51.178;5.900;2023-02-23T09:15:08;101321.16;;;16.18;60.01
50338;BME280;46221;51.178;5.900;2023-02-23T09:17:36;101330.00;;;16.20;59.89
50338;BME280;46221;51.178;5.900;2023-02-23T09:20:04;101320.38;;;16.16;59.82
50338;BME280;46221;51.178;5.900;2023-02-23T09:22:30;101317.56;;;16.19;59.80
50338;BME280;46221;51.178;5.900;2023-02-23T09:24:57;101310.47;;;16.18;59.76
50338;BME280;46221;51.178;5.900;2023-02-23T09:27:24;101319.31;;;16.20;59.83
50338;BME280;46221;51.178;5.900;2023-02-23T09:29:50;101326.25;;;16.24;59.88
50338;BME280;46221;51.178;5.900;2023-02-23T09:32:17;101331.44;;;16.28;59.68
50338;BME280;46221;51.178;5.900;2023-02-23T09:34:43;101330.38;;;16.32;59.72
50338;BME280;46221;51.178;5.900;2023-02-23T09:37:10;101325.75;;;16.35;59.48
50338;BME280;46221;51.178;5.900;2023-02-23T09:39:36;101332.72;;;16.39;59.42
50338;BME280;46221;51.178;5.900;2023-02-23T09:45:16;59360.63;;;-145.57;100.00
50338;BME280;46221;51.178;5.900;2023-02-23T09:48:10;59360.63;;;-145.57;100.00
50338;BME280;46221;51.178;5.900;2023-02-23T09:50:39;59360.63;;;-145.57;100.00
50338;BME280;46221;51.178;5.900;2023-02-23T09:53:23;59360.63;;;-145.57;100.00
50338;BME280;46221;51.178;5.900;2023-02-23T09:55:53;59360.63;;;-145.57;100.00
50338;BME280;46221;51.178;5.900;2023-02-23T09:58:24;59360.63;;;-145.57;100.00
50338;BME280;46221;51.178;5.900;2023-02-23T10:03:46;59360.63;;;-145.57;100.00
50338;BME280;46221;51.178;5.900;2023-02-23T10:06:16;59360.63;;;-145.57;100.00
50338;BME280;46221;51.178;5.900;2023-02-23T10:11:33;59360.63;;;-145.57;100.00
50338;BME280;46221;51.178;5.900;2023-02-23T10:22:20;59360.63;;;-145.57;100.00
50338;BME280;46221;51.178;5.900;2023-02-23T10:25:04;59360.63;;;-145.57;100.00
50338;BME280;46221;51.178;5.900;2023-02-23T10:27:37;59360.63;;;-145.57;100.00
50338;BME280;46221;51.178;5.900;2023-02-23T10:30:16;59360.63;;;-145.57;100.00
50338;BME280;46221;51.178;5.900;2023-02-23T10:33:15;59360.63;;;-145.57;100.00
50338;BME280;46221;51.178;5.900;2023-02-23T10:35:46;59360.63;;;-145.57;100.00
50338;BME280;46221;51.178;5.900;2023-02-23T10:38:17;59360.63;;;-145.57;100.00
50338;BME280;46221;51.178;5.900;2023-02-23T10:40:49;59360.63;;;-145.57;100.00
50338;BME280;46221;51.178;5.900;2023-02-23T10:43:16;59360.63;;;-145.57;100.00
50338;BME280;46221;51.178;5.900;2023-02-23T10:45:46;59360.63;;;-145.57;100.00
50338;BME280;46221;51.178;5.900;2023-02-23T10:48:42;59360.63;;;-145.57;100.00
50338;BME280;46221;51.178;5.900;2023-02-23T10:51:17;59360.63;;;-145.57;100.00
50338;BME280;46221;51.178;5.900;2023-02-23T10:53:45;59360.63;;;-145.57;100.00
50338;BME280;46221;51.178;5.900;2023-02-23T10:56:16;59360.63;;;-145.57;100.00
50338;BME280;46221;51.178;5.900;2023-02-23T10:58:45;59360.63;;;-145.57;100.00
50338;BME280;46221;51.178;5.900;2023-02-23T11:01:16;59360.63;;;-145.57;100.00
50338;BME280;46221;51.178;5.900;2023-02-23T11:04:00;59360.63;;;-145.57;100.00
50338;BME280;46221;51.178;5.900;2023-02-23T11:06:38;59360.63;;;-145.57;100.00
50338;BME280;46221;51.178;5.900;2023-02-23T11:09:27;59360.63;;;-145.57;100.00
50338;BME280;46221;51.178;5.900;2023-02-23T11:12:23;59360.63;;;-145.57;100.00
50338;BME280;46221;51.178;5.900;2023-02-23T11:14:55;59360.63;;;-145.57;100.00
50338;BME280;46221;51.178;5.900;2023-02-23T11:19:58;59360.63;;;-145.57;100.00
50338;BME280;46221;51.178;5.900;2023-02-23T11:22:30;59360.63;;;-145.57;100.00
50338;BME280;46221;51.178;5.900;2023-02-23T11:24:59;59360.63;;;-145.57;100.00
50338;BME280;46221;51.178;5.900;2023-02-23T11:27:26;59360.63;;;-145.57;100.00
50338;BME280;46221;51.178;5.900;2023-02-23T11:29:55;59360.63;;;-145.57;100.00
50338;BME280;46221;51.178;5.900;2023-02-23T11:32:28;59360.63;;;-145.57;100.00
50338;BME280;46221;51.178;5.900;2023-02-23T11:37:44;59360.63;;;-145.57;100.00
50338;BME280;46221;51.178;5.900;2023-02-23T11:40:26;59360.63;;;-145.57;100.00
50338;BME280;46221;51.178;5.900;2023-02-23T11:45:25;59360.63;;;-145.57;100.00
50338;BME280;46221;51.178;5.900;2023-02-23T11:47:55;59360.63;;;-145.57;100.00
50338;BME280;46221;51.178;5.900;2023-02-23T11:50:28;59360.63;;;-145.57;100.00
50338;BME280;46221;51.178;5.900;2023-02-23T11:53:02;59360.63;;;-145.57;100.00
50338;BME280;46221;51.178;5.900;2023-02-23T11:55:31;59360.63;;;-145.57;100.00
50338;BME280;46221;51.178;5.900;2023-02-23T11:58:09;59360.63;;;-145.57;100.00
50338;BME280;46221;51.178;5.900;2023-02-23T12:00:37;59360.63;;;-145.57;100.00
50338;BME280;46221;51.178;5.900;2023-02-23T12:03:04;59360.63;;;-145.57;100.00
50338;BME280;46221;51.178;5.900;2023-02-23T12:05:31;59360.63;;;-145.57;100.00
50338;BME280;46221;51.178;5.900;2023-02-23T12:08:00;59360.63;;;-145.57;100.00
50338;BME280;46221;51.178;5.900;2023-02-23T12:13:23;59360.63;;;-145.57;100.00
50338;BME280;46221;51.178;5.900;2023-02-23T12:21:34;59360.63;;;-145.57;100.00
50338;BME280;46221;51.178;5.900;2023-02-23T12:24:17;59360.63;;;-145.57;100.00
50338;BME280;46221;51.178;5.900;2023-02-23T12:26:56;59360.63;;;-145.57;100.00
50338;BME280;46221;51.178;5.900;2023-02-23T12:29:34;59360.63;;;-145.57;100.00
50338;BME280;46221;51.178;5.900;2023-02-23T12:32:08;59360.63;;;-145.57;100.00
50338;BME280;46221;51.178;5.900;2023-02-23T12:40:03;59360.63;;;-145.57;100.00
50338;BME280;46221;51.178;5.900;2023-02-23T12:45:28;59360.63;;;-145.57;100.00
50338;BME280;46221;51.178;5.900;2023-02-23T12:50:27;59360.63;;;-145.57;100.00
50338;BME280;46221;51.178;5.900;2023-02-23T13:01:20;59360.63;;;-145.57;100.00
50338;BME280;46221;51.178;5.900;2023-02-23T13:06:37;59360.63;;;-145.57;100.00
50338;BME280;46221;51.178;5.900;2023-02-23T13:09:29;59360.63;;;-145.57;100.00
50338;BME280;46221;51.178;5.900;2023-02-23T13:15:14;59360.63;;;-145.57;100.00
50338;BME280;46221;51.178;5.900;2023-02-23T13:25:49;59360.63;;;-145.57;100.00
50338;BME280;46221;51.178;5.900;2023-02-23T13:31:22;59360.63;;;-145.57;100.00
50338;BME280;46221;51.178;5.900;2023-02-23T13:33:50;59360.63;;;-145.57;100.00
50338;BME280;46221;51.178;5.900;2023-02-23T13:36:18;59360.63;;;-145.57;100.00
50338;BME280;46221;51.178;5.900;2023-02-23T13:41:56;59360.63;;;-145.57;100.00
50338;BME280;46221;51.178;5.900;2023-02-23T13:44:34;59360.63;;;-145.57;100.00
50338;BME280;46221;51.178;5.900;2023-02-23T13:47:13;59360.63;;;-145.57;100.00
50338;BME280;46221;51.178;5.900;2023-02-23T13:49:53;59360.63;;;-145.57;100.00
50338;BME280;46221;51.178;5.900;2023-02-23T13:52:37;59360.63;;;-145.57;100.00
50338;BME280;46221;51.178;5.900;2023-02-23T13:58:11;59360.63;;;-145.57;100.00
50338;BME280;46221;51.178;5.900;2023-02-23T14:00:42;59360.63;;;-145.57;100.00
50338;BME280;46221;51.178;5.900;2023-02-23T14:03:21;59360.63;;;-145.57;100.00
50338;BME280;46221;51.178;5.900;2023-02-23T14:05:51;59360.63;;;-145.57;100.00
50338;BME280;46221;51.178;5.900;2023-02-23T14:08:28;59360.63;;;-145.57;100.00
50338;BME280;46221;51.178;5.900;2023-02-23T14:10:56;59360.63;;;-145.57;100.00
50338;BME280;46221;51.178;5.900;2023-02-23T14:16:12;59360.63;;;-145.57;100.00
50338;BME280;46221;51.178;5.900;2023-02-23T14:18:54;59360.63;;;-145.57;100.00
50338;BME280;46221;51.178;5.900;2023-02-23T14:21:42;59360.63;;;-145.57;100.00
50338;BME280;46221;51.178;5.900;2023-02-23T14:26:45;59360.63;;;-145.57;100.00
50338;BME280;46221;51.178;5.900;2023-02-23T14:29:41;59360.63;;;-145.57;100.00
50338;BME280;46221;51.178;5.900;2023-02-23T14:37:40;59360.63;;;-145.57;100.00
50338;BME280;46221;51.178;5.900;2023-02-23T14:42:40;59360.63;;;-145.57;100.00
50338;BME280;46221;51.178;5.900;2023-02-23T14:45:22;59360.63;;;-145.57;100.00
50338;BME280;46221;51.178;5.900;2023-02-23T14:48:11;59360.63;;;-145.57;100.00
50338;BME280;46221;51.178;5.900;2023-02-23T14:50:39;59360.63;;;-145.57;100.00
50338;BME280;46221;51.178;5.900;2023-02-23T14:53:14;59360.63;;;-145.57;100.00
50338;BME280;46221;51.178;5.900;2023-02-23T14:55:43;59360.63;;;-145.57;100.00
50338;BME280;46221;51.178;5.900;2023-02-23T14:58:25;59360.63;;;-145.57;100.00
50338;BME280;46221;51.178;5.900;2023-02-23T15:00:52;59360.63;;;-145.57;100.00
50338;BME280;46221;51.178;5.900;2023-02-23T15:03:19;59360.63;;;-145.57;100.00
50338;BME280;46221;51.178;5.900;2023-02-23T15:05:54;59360.63;;;-145.57;100.00
50338;BME280;46221;51.178;5.900;2023-02-23T15:08:24;59360.63;;;-145.57;100.00
50338;BME280;46221;51.178;5.900;2023-02-23T15:10:59;59360.63;;;-145.57;100.00
50338;BME280;46221;51.178;5.900;2023-02-23T15:13:34;59360.63;;;-145.57;100.00
50338;BME280;46221;51.178;5.900;2023-02-23T15:16:07;59360.63;;;-145.57;100.00
50338;BME280;46221;51.178;5.900;2023-02-23T15:18:40;59360.63;;;-145.57;100.00
50338;BME280;46221;51.178;5.900;2023-02-23T15:21:19;59360.63;;;-145.57;100.00
50338;BME280;46221;51.178;5.900;2023-02-23T15:23:51;59360.63;;;-145.57;100.00
50338;BME280;46221;51.178;5.900;2023-02-23T15:31:34;59360.63;;;-145.57;100.00
50338;BME280;46221;51.178;5.900;2023-02-23T15:34:02;59360.63;;;-145.57;100.00
50338;BME280;46221;51.178;5.900;2023-02-23T15:36:30;59360.63;;;-145.57;100.00
50338;BME280;46221;51.178;5.900;2023-02-23T15:39:02;59360.63;;;-145.57;100.00
50338;BME280;46221;51.178;5.900;2023-02-23T15:41:35;59360.63;;;-145.57;100.00
50338;BME280;46221;51.178;5.900;2023-02-23T15:44:17;59360.63;;;-145.57;100.00
50338;BME280;46221;51.178;5.900;2023-02-23T15:46:50;59360.63;;;-145.57;100.00
50338;BME280;46221;51.178;5.900;2023-02-23T15:49:18;59360.63;;;-145.57;100.00
50338;BME280;46221;51.178;5.900;2023-02-23T15:51:49;59360.63;;;-145.57;100.00
50338;BME280;46221;51.178;5.900;2023-02-23T15:54:26;59360.63;;;-145.57;100.00
50338;BME280;46221;51.178;5.900;2023-02-23T15:56:56;59360.63;;;-145.57;100.00
50338;BME280;46221;51.178;5.900;2023-02-23T15:59:29;59360.63;;;-145.57;100.00
50338;BME280;46221;51.178;5.900;2023-02-23T16:02:00;59360.63;;;-145.57;100.00
50338;BME280;46221;51.178;5.900;2023-02-23T16:04:31;59360.63;;;-145.57;100.00
50338;BME280;46221;51.178;5.900;2023-02-23T16:07:22;59360.63;;;-145.57;100.00
50338;BME280;46221;51.178;5.900;2023-02-23T16:09:50;59360.63;;;-145.57;100.00
50338;BME280;46221;51.178;5.900;2023-02-23T16:12:28;59360.63;;;-145.57;100.00
50338;BME280;46221;51.178;5.900;2023-02-23T16:15:00;59360.63;;;-145.57;100.00
50338;BME280;46221;51.178;5.900;2023-02-23T16:17:42;59360.63;;;-145.57;100.00
50338;BME280;46221;51.178;5.900;2023-02-23T16:20:16;59360.63;;;-145.57;100.00
50338;BME280;46221;51.178;5.900;2023-02-23T16:22:45;59360.63;;;-145.57;100.00
50338;BME280;46221;51.178;5.900;2023-02-23T16:25:16;59360.63;;;-145.57;100.00
50338;BME280;46221;51.178;5.900;2023-02-23T16:27:45;59360.63;;;-145.57;100.00
50338;BME280;46221;51.178;5.900;2023-02-23T16:30:20;59360.63;;;-145.57;100.00
50338;BME280;46221;51.178;5.900;2023-02-23T16:33:21;59360.63;;;-145.57;100.00
50338;BME280;46221;51.178;5.900;2023-02-23T16:35:52;59360.63;;;-145.57;100.00
50338;BME280;46221;51.178;5.900;2023-02-23T16:38:23;59360.63;;;-145.57;100.00
50338;BME280;46221;51.178;5.900;2023-02-23T16:40:50;59360.63;;;-145.57;100.00
50338;BME280;46221;51.178;5.900;2023-02-23T16:43:16;59360.63;;;-145.57;100.00
50338;BME280;46221;51.178;5.900;2023-02-23T16:45:43;59360.63;;;-145.57;100.00
50338;BME280;46221;51.178;5.900;2023-02-23T16:48:14;59360.63;;;-145.57;100.00
50338;BME280;46221;51.178;5.900;2023-02-23T16:50:42;59360.63;;;-145.57;100.00
50338;BME280;46221;51.178;5.900;2023-02-23T16:53:11;59360.63;;;-145.57;100.00
50338;BME280;46221;51.178;5.900;2023-02-23T16:55:48;59360.63;;;-145.57;100.00
50338;BME280;46221;51.178;5.900;2023-02-23T16:58:19;59360.63;;;-145.57;100.00
50338;BME280;46221;51.178;5.900;2023-02-23T17:00:47;59360.63;;;-145.57;100.00
50338;BME280;46221;51.178;5.900;2023-02-23T17:03:18;59360.63;;;-145.57;100.00
50338;BME280;46221;51.178;5.900;2023-02-23T17:05:46;59360.63;;;-145.57;100.00
50338;BME280;46221;51.178;5.900;2023-02-23T17:08:13;59360.63;;;-145.57;100.00
50338;BME280;46221;51.178;5.900;2023-02-23T17:10:40;59360.63;;;-145.57;100.00
50338;BME280;46221;51.178;5.900;2023-02-23T17:13:14;59360.63;;;-145.57;100.00
50338;BME280;46221;51.178;5.900;2023-02-23T17:15:43;59360.63;;;-145.57;100.00
50338;BME280;46221;51.178;5.900;2023-02-23T17:18:17;59360.63;;;-145.57;100.00
50338;BME280;46221;51.178;5.900;2023-02-23T17:20:44;59360.63;;;-145.57;100.00
50338;BME280;46221;51.178;5.900;2023-02-23T17:23:10;59360.63;;;-145.57;100.00
50338;BME280;46221;51.178;5.900;2023-02-23T17:25:37;59360.63;;;-145.57;100.00
50338;BME280;46221;51.178;5.900;2023-02-23T17:28:03;59360.63;;;-145.57;100.00
50338;BME280;46221;51.178;5.900;2023-02-23T17:30:30;59360.63;;;-145.57;100.00
50338;BME280;46221;51.178;5.900;2023-02-23T17:32:57;59360.63;;;-145.57;100.00
50338;BME280;46221;51.178;5.900;2023-02-23T17:35:24;59360.63;;;-145.57;100.00
50338;BME280;46221;51.178;5.900;2023-02-23T17:37:51;59360.63;;;-145.57;100.00
50338;BME280;46221;51.178;5.900;2023-02-23T17:40:21;59360.63;;;-145.57;100.00
50338;BME280;46221;51.178;5.900;2023-02-23T17:42:52;59360.63;;;-145.57;100.00
50338;BME280;46221;51.178;5.900;2023-02-23T17:45:18;59360.63;;;-145.57;100.00
50338;BME280;46221;51.178;5.900;2023-02-23T17:47:45;59360.63;;;-145.57;100.00
50338;BME280;46221;51.178;5.900;2023-02-23T17:50:11;59360.63;;;-145.57;100.00
50338;BME280;46221;51.178;5.900;2023-02-23T17:52:37;59360.63;;;-145.57;100.00
50338;BME280;46221;51.178;5.900;2023-02-23T17:55:04;59360.63;;;-145.57;100.00
50338;BME280;46221;51.178;5.900;2023-02-23T17:57:31;59360.63;;;-145.57;100.00
50338;BME280;46221;51.178;5.900;2023-02-23T17:59:58;59360.63;;;-145.57;100.00